Hartford, Connecticut
Traffic Map
Current Weather Conditions
Hartford, Connecticut
Clear
Clear
69°
Feels Like: 69°
Wind Chill: 69° Ceiling: Unl
Heat Index: 69° Visibility: 10mi
Dew Point: 63° Wind: 5mph
Humidity: 81% Direction: 190° (S)
Pressure: 30.01in Gusts: 0mph
Raw Report DataKHFD 010753Z AUTO 19004KT 10SM CLR 21/17 A3001 RMK AO2 SLP161 T02060172
Traffic Incident Summary
Active as of:
Severity:
Category:
InformationThere was an issue retrieving the traffic information for this location. Please try a different location or try again shortly.
Advertisements
Track Severe Weather on mobile